Time;durP1;ratioP1;P1;durP2;ratioP2;P2;SDS_P1;SDS_P2;PMS_P1;PMS_P2;Temp;Humidity;BMP_temperature;BMP_pressure;BME280_temperature;BME280_humidity;BME280_pressure;Samples;Min_cycle;Max_cycle;Signal;HPM_P1;HPM_P2
2022/09/29 00:02:31;;;;;;;4.83;3.77;;;8.50;99.90;;;;;;10393336;28;20236;-73
2022/09/29 00:07:38;;;;;;;6.20;3.63;;;8.40;99.90;;;;;;10387500;28;20771;-73
2022/09/29 00:12:39;;;;;;;5.90;4.50;;;8.40;99.90;;;;;;10387048;28;20241;-76
2022/09/29 00:17:40;;;;;;;8.70;4.07;;;8.30;99.90;;;;;;10376923;28;20229;-74
2022/09/29 00:22:41;;;;;;;6.57;4.40;;;8.30;99.90;;;;;;10398136;28;20223;-72
2022/09/29 00:27:42;;;;;;;5.90;4.43;;;8.40;99.90;;;;;;10389121;28;20259;-74
2022/09/29 00:32:42;;;;;;;6.10;4.50;;;8.40;99.90;;;;;;10380386;28;20256;-73
2022/09/29 00:37:45;;;;;;;7.37;4.10;;;8.50;99.90;;;;;;10389478;28;20228;-73
2022/09/29 00:42:45;;;;;;;5.97;4.20;;;8.50;99.90;;;;;;10388505;28;20278;-74
2022/09/29 00:47:52;;;;;;;5.70;4.33;;;8.50;99.90;;;;;;10403412;28;20794;-73
2022/09/29 00:53:00;;;;;;;5.00;4.17;;;8.40;99.90;;;;;;10387945;28;20223;-76
2022/09/29 00:58:21;;;;;;;6.43;4.37;;;8.40;99.90;;;;;;10385986;28;20224;-74
2022/09/29 01:03:26;;;;;;;6.30;4.60;;;8.30;99.90;;;;;;10387453;28;20265;-74
2022/09/29 01:08:38;;;;;;;5.87;4.63;;;8.30;99.90;;;;;;10396750;28;20233;-74
2022/09/29 01:13:40;;;;;;;5.00;4.43;;;8.20;99.90;;;;;;10389055;28;20250;-73
2022/09/29 01:18:42;;;;;;;5.40;4.53;;;8.20;99.90;;;;;;10402751;28;20220;-74
2022/09/29 01:23:47;;;;;;;6.47;5.27;;;8.10;99.90;;;;;;10389071;28;20361;-74
2022/09/29 01:29:02;;;;;;;8.10;5.97;;;8.10;99.90;;;;;;10389327;28;20600;-76
2022/09/29 01:34:25;;;;;;;7.03;6.20;;;8.10;99.90;;;;;;10392358;28;20216;-73
2022/09/29 01:39:33;;;;;;;7.87;6.57;;;8.10;99.90;;;;;;10390769;28;20305;-76
2022/09/29 01:44:53;;;;;;;9.00;6.27;;;8.00;99.90;;;;;;10394093;28;20724;-72
2022/09/29 01:50:08;;;;;;;7.07;6.30;;;8.00;99.90;;;;;;10399734;28;20223;-71
2022/09/29 01:55:12;;;;;;;12.13;7.27;;;7.90;99.90;;;;;;10393884;28;20218;-75
2022/09/29 02:00:16;;;;;;;9.93;7.40;;;7.90;99.90;;;;;;10392028;28;20199;-75
2022/09/29 02:05:54;;;;;;;8.23;7.37;;;7.90;99.90;;;;;;10390272;28;20203;-74
2022/09/29 02:11:06;;;;;;;10.13;7.30;;;7.90;99.90;;;;;;10399546;28;20828;-74
2022/09/29 02:16:13;;;;;;;9.17;7.27;;;7.80;99.90;;;;;;10393782;28;20212;-73
2022/09/29 02:21:13;;;;;;;9.53;7.30;;;7.80;99.90;;;;;;10396896;28;20210;-74
2022/09/29 02:26:14;;;;;;;9.03;7.30;;;7.80;99.90;;;;;;10398623;28;20218;-72
2022/09/29 02:31:15;;;;;;;8.57;7.20;;;7.80;99.90;;;;;;10388956;28;20754;-74
2022/09/29 02:36:44;;;;;;;11.63;7.37;;;7.70;99.90;;;;;;10390649;28;20218;-73
2022/09/29 02:42:05;;;;;;;10.10;8.30;;;7.70;99.90;;;;;;10384143;28;20713;-73
2022/09/29 02:47:31;;;;;;;11.60;8.30;;;7.60;99.90;;;;;;10390269;28;20222;-73
2022/09/29 02:53:01;;;;;;;8.53;7.40;;;7.60;99.90;;;;;;10389952;28;20277;-73
2022/09/29 02:58:19;;;;;;;9.17;8.17;;;7.60;99.90;;;;;;10399604;28;20213;-73
2022/09/29 03:03:20;;;;;;;11.43;8.80;;;7.60;99.90;;;;;;10387887;28;20235;-74
2022/09/29 03:08:21;;;;;;;11.43;9.60;;;7.70;99.90;;;;;;10390077;28;20233;-72
2022/09/29 03:13:21;;;;;;;14.53;10.83;;;7.90;99.90;;;;;;10388843;28;20239;-71
2022/09/29 03:18:23;;;;;;;13.03;10.70;;;8.10;99.90;;;;;;10390446;28;20809;-70
2022/09/29 03:23:23;;;;;;;12.10;10.67;;;8.20;99.90;;;;;;10395697;28;20589;-73
2022/09/29 03:28:27;;;;;;;15.20;10.37;;;8.40;99.90;;;;;;10388599;28;20226;-74
2022/09/29 03:33:28;;;;;;;11.00;9.90;;;8.40;99.90;;;;;;10385115;28;20221;-74
2022/09/29 03:38:28;;;;;;;17.20;10.67;;;8.50;99.90;;;;;;10392792;28;20225;-75
2022/09/29 03:43:29;;;;;;;12.07;9.70;;;8.60;99.90;;;;;;10394908;28;20814;-74
2022/09/29 03:48:30;;;;;;;15.83;11.77;;;8.60;99.90;;;;;;10388244;28;20231;-74
2022/09/29 03:53:33;;;;;;;16.20;12.27;;;8.80;99.90;;;;;;10386359;28;20270;-73
2022/09/29 03:58:35;;;;;;;15.97;12.43;;;8.80;99.90;;;;;;10389918;28;20238;-75
2022/09/29 04:03:36;;;;;;;27.87;13.60;;;8.90;99.90;;;;;;10390735;28;20232;-74
2022/09/29 04:08:36;;;;;;;27.27;13.27;;;8.80;99.90;;;;;;10405581;28;20561;-73
2022/09/29 04:13:39;;;;;;;22.73;13.30;;;8.80;99.90;;;;;;10401872;28;20632;-75
2022/09/29 04:18:40;;;;;;;17.00;13.57;;;8.80;99.90;;;;;;10390983;28;20932;-75
2022/09/29 04:23:41;;;;;;;38.00;14.73;;;8.80;99.90;;;;;;10390029;28;20308;-74
2022/09/29 04:28:41;;;;;;;19.17;13.70;;;8.90;99.90;;;;;;10399245;28;20607;-71
2022/09/29 04:33:42;;;;;;;15.93;12.87;;;9.00;99.90;;;;;;10390883;28;20219;-73
2022/09/29 04:38:42;;;;;;;17.37;13.03;;;9.00;99.90;;;;;;10393817;28;20593;-73
2022/09/29 04:43:43;;;;;;;13.93;12.53;;;9.00;99.90;;;;;;10397686;28;20215;-74
2022/09/29 04:48:44;;;;;;;28.23;12.23;;;8.90;99.90;;;;;;10389075;28;20234;-73
2022/09/29 04:53:44;;;;;;;14.73;12.63;;;8.90;99.90;;;;;;10396385;28;20215;-75
2022/09/29 04:58:45;;;;;;;16.33;12.97;;;8.90;99.90;;;;;;10402750;28;20705;-74
2022/09/29 05:03:45;;;;;;;20.17;13.93;;;9.00;99.90;;;;;;10396614;28;20282;-74
2022/09/29 05:08:46;;;;;;;13.63;12.20;;;9.00;99.90;;;;;;10389405;28;20228;-76
2022/09/29 05:13:50;;;;;;;24.50;13.67;;;9.00;99.90;;;;;;10397268;28;20228;-75
2022/09/29 05:18:50;;;;;;;15.43;13.77;;;9.00;99.90;;;;;;10397994;28;20227;-72
2022/09/29 05:23:51;;;;;;;16.80;14.40;;;9.00;99.90;;;;;;10397590;28;20224;-76
2022/09/29 05:28:51;;;;;;;16.83;13.40;;;9.00;99.90;;;;;;10396277;28;20690;-75
2022/09/29 05:33:57;;;;;;;22.87;14.53;;;9.10;99.90;;;;;;10389539;28;20313;-70
2022/09/29 05:38:57;;;;;;;28.00;13.93;;;9.20;99.90;;;;;;10395416;28;20228;-70
2022/09/29 05:44:00;;;;;;;16.17;13.37;;;9.10;99.90;;;;;;10389545;28;20258;-71
2022/09/29 05:49:00;;;;;;;18.00;14.30;;;9.10;99.90;;;;;;10404239;28;20306;-70
2022/09/29 05:54:01;;;;;;;21.07;14.20;;;9.20;99.90;;;;;;10397437;28;20678;-74
2022/09/29 05:59:02;;;;;;;18.23;14.73;;;9.30;99.90;;;;;;10395331;28;20227;-74
2022/09/29 06:04:02;;;;;;;22.53;13.93;;;9.30;99.90;;;;;;10398050;28;20226;-73
2022/09/29 06:09:03;;;;;;;18.83;15.17;;;9.30;99.90;;;;;;10398846;28;20241;-74
2022/09/29 06:14:03;;;;;;;21.00;15.23;;;9.30;99.90;;;;;;10392809;28;20214;-74
2022/09/29 06:19:04;;;;;;;17.53;14.77;;;9.40;99.90;;;;;;10394206;28;20247;-73
2022/09/29 06:24:08;;;;;;;18.87;14.57;;;9.40;99.90;;;;;;10388988;28;20308;-74
2022/09/29 06:29:09;;;;;;;21.03;14.37;;;9.50;99.90;;;;;;10397167;28;20597;-74
2022/09/29 06:34:09;;;;;;;21.27;14.83;;;9.60;99.90;;;;;;10398543;28;20220;-73
2022/09/29 06:39:12;;;;;;;15.67;13.33;;;9.70;99.90;;;;;;10398216;28;20224;-75
2022/09/29 06:44:14;;;;;;;19.37;14.33;;;9.80;99.90;;;;;;10388061;28;20217;-74
2022/09/29 06:49:15;;;;;;;17.53;13.17;;;9.80;99.90;;;;;;10389538;28;20275;-73
2022/09/29 06:54:22;;;;;;;16.53;13.30;;;9.70;99.90;;;;;;10388710;28;20212;-74
2022/09/29 06:59:22;;;;;;;15.63;12.90;;;9.90;99.90;;;;;;10396135;28;20224;-74
2022/09/29 07:04:24;;;;;;;16.43;13.90;;;10.20;99.90;;;;;;10389574;28;20580;-74
2022/09/29 07:09:25;;;;;;;20.30;14.33;;;10.30;99.90;;;;;;10395019;28;20241;-75
2022/09/29 07:14:25;;;;;;;18.07;13.57;;;10.40;99.90;;;;;;10390278;28;20273;-74
2022/09/29 07:19:26;;;;;;;16.17;13.30;;;10.30;99.90;;;;;;10387932;28;20236;-74
2022/09/29 07:24:26;;;;;;;20.43;14.50;;;10.20;99.90;;;;;;10391906;28;20229;-74
2022/09/29 07:29:31;;;;;;;19.27;14.23;;;10.20;99.90;;;;;;10383305;28;20785;-73
2022/09/29 07:34:32;;;;;;;18.83;14.90;;;10.30;99.90;;;;;;10389860;28;20231;-74
2022/09/29 07:39:32;;;;;;;19.67;15.10;;;10.30;99.90;;;;;;10393772;28;20295;-74
2022/09/29 07:44:33;;;;;;;20.97;16.00;;;10.30;99.90;;;;;;10395823;28;20233;-76
2022/09/29 07:49:34;;;;;;;19.90;15.57;;;10.30;99.90;;;;;;10384153;28;20716;-74
2022/09/29 07:54:34;;;;;;;22.20;15.60;;;10.30;99.90;;;;;;10400011;28;20216;-75
2022/09/29 07:59:35;;;;;;;21.57;16.03;;;10.40;99.90;;;;;;10383667;28;20247;-73
2022/09/29 08:04:35;;;;;;;22.73;16.27;;;10.50;99.90;;;;;;10389839;28;20233;-74
2022/09/29 08:09:39;;;;;;;19.77;15.03;;;10.70;99.90;;;;;;10389147;28;20265;-74
2022/09/29 08:14:39;;;;;;;23.70;16.50;;;10.90;99.90;;;;;;10397346;28;20303;-73
2022/09/29 08:19:40;;;;;;;20.23;15.77;;;10.80;99.90;;;;;;10397351;28;20317;-75
2022/09/29 08:24:41;;;;;;;17.97;14.17;;;10.80;99.90;;;;;;10390166;28;20270;-74
2022/09/29 08:29:42;;;;;;;21.27;15.50;;;10.90;99.90;;;;;;10388928;28;20238;-74
2022/09/29 08:34:42;;;;;;;21.53;14.60;;;11.10;99.90;;;;;;10396855;28;20311;-74
2022/09/29 08:39:43;;;;;;;17.63;13.80;;;11.50;99.90;;;;;;10381443;28;20216;-74
2022/09/29 08:45:07;;;;;;;19.03;13.43;;;11.80;99.90;;;;;;10388950;28;20214;-74
2022/09/29 08:50:32;;;;;;;20.10;15.03;;;12.00;99.90;;;;;;10388346;28;20332;-74
2022/09/29 08:56:04;;;;;;;25.03;18.07;;;12.00;99.90;;;;;;10399482;28;20209;-73
2022/09/29 09:01:26;;;;;;;21.50;15.67;;;11.90;99.90;;;;;;10389602;28;20255;-75
2022/09/29 09:06:39;;;;;;;20.13;15.27;;;11.90;99.90;;;;;;10385187;28;20229;-74
2022/09/29 09:11:50;;;;;;;18.93;15.33;;;12.00;99.90;;;;;;10390104;28;20381;-74
2022/09/29 09:16:52;;;;;;;16.83;13.53;;;12.00;99.90;;;;;;10383692;28;20251;-74
2022/09/29 09:22:06;;;;;;;19.63;15.17;;;12.00;99.90;;;;;;10388859;28;20594;-74
2022/09/29 09:27:14;;;;;;;18.83;14.80;;;12.10;99.90;;;;;;10392156;28;20995;-75
2022/09/29 09:32:20;;;;;;;18.20;12.77;;;12.30;99.90;;;;;;10393235;28;20291;-74
2022/09/29 09:37:25;;;;;;;17.63;13.10;;;12.50;99.90;;;;;;10393649;28;20230;-74
2022/09/29 09:42:37;;;;;;;19.57;13.93;;;12.70;99.90;;;;;;10388272;28;20221;-74
2022/09/29 09:47:45;;;;;;;18.27;14.00;;;12.50;99.90;;;;;;10412066;28;20219;-74
2022/09/29 09:52:51;;;;;;;19.53;14.00;;;12.40;99.90;;;;;;10388001;28;20233;-76
2022/09/29 09:58:01;;;;;;;15.70;12.57;;;12.20;99.90;;;;;;10388841;28;20740;-75
2022/09/29 10:03:04;;;;;;;17.33;12.47;;;12.70;99.90;;;;;;10400641;28;20312;-75
2022/09/29 10:08:22;;;;;;;15.80;12.60;;;13.30;99.90;;;;;;10396919;28;20221;-74
2022/09/29 10:13:29;;;;;;;17.47;13.20;;;13.80;99.90;;;;;;10390839;28;20300;-74
2022/09/29 10:18:39;;;;;;;17.30;12.90;;;14.00;99.90;;;;;;10420148;28;20220;-74
2022/09/29 10:23:50;;;;;;;16.70;12.43;;;14.30;99.90;;;;;;10387991;28;20237;-76
2022/09/29 10:28:57;;;;;;;11.07;9.70;;;15.00;99.90;;;;;;10387744;28;20301;-75
2022/09/29 10:34:21;;;;;;;11.13;9.93;;;15.60;99.90;;;;;;10392751;28;20241;-75
2022/09/29 10:39:39;;;;;;;13.20;10.93;;;16.10;99.90;;;;;;10386231;28;20225;-75
2022/09/29 10:44:40;;;;;;;14.83;12.00;;;16.00;99.90;;;;;;10386491;28;20311;-75
2022/09/29 10:49:41;;;;;;;15.33;11.27;;;16.10;99.90;;;;;;10394349;28;20216;-75
2022/09/29 10:54:57;;;;;;;12.17;10.87;;;16.40;99.90;;;;;;10393603;28;20253;-74
2022/09/29 10:59:58;;;;;;;16.57;12.20;;;17.00;99.90;;;;;;10385559;28;20225;-73
2022/09/29 11:05:15;;;;;;;12.90;11.33;;;17.60;99.90;;;;;;10397194;28;20226;-75
2022/09/29 11:10:28;;;;;;;10.07;8.90;;;19.20;99.90;;;;;;10386733;28;20236;-75
2022/09/29 11:15:39;;;;;;;14.87;10.53;;;20.40;99.90;;;;;;10395182;28;20679;-74
2022/09/29 11:20:41;;;;;;;11.60;10.37;;;19.90;99.90;;;;;;10399230;28;20701;-74
2022/09/29 11:26:12;;;;;;;12.33;10.30;;;19.60;99.90;;;;;;10384950;28;20238;-75
2022/09/29 11:31:39;;;;;;;15.47;10.40;;;19.00;99.90;;;;;;10385951;28;20730;-75
2022/09/29 11:37:06;;;;;;;12.00;8.93;;;18.80;99.90;;;;;;10385226;28;20245;-75
2022/09/29 11:42:44;;;;;;;12.37;10.57;;;18.40;99.90;;;;;;10389903;28;20222;-74
2022/09/29 11:48:04;;;;;;;12.30;10.30;;;18.00;99.90;;;;;;10401756;28;20587;-75
2022/09/29 11:53:38;;;;;;;12.97;10.50;;;17.90;99.90;;;;;;10386573;28;20312;-74
2022/09/29 11:58:50;;;;;;;12.87;10.80;;;17.80;99.90;;;;;;10384601;28;20218;-74
2022/09/29 12:04:02;;;;;;;10.43;9.37;;;17.60;99.90;;;;;;10382482;28;20317;-75
2022/09/29 12:09:32;;;;;;;10.70;9.60;;;17.60;99.90;;;;;;10391855;28;20686;-75
2022/09/29 12:15:02;;;;;;;11.43;9.60;;;17.60;99.90;;;;;;10398389;28;20628;-74
2022/09/29 12:20:13;;;;;;;11.77;9.40;;;17.90;99.90;;;;;;10401371;28;20795;-75
2022/09/29 12:25:17;;;;;;;11.07;9.47;;;18.40;99.90;;;;;;10385783;28;20732;-75
2022/09/29 12:30:28;;;;;;;10.47;7.70;;;18.10;99.90;;;;;;10386505;28;20204;-74
2022/09/29 12:35:40;;;;;;;11.77;7.57;;;17.90;99.90;;;;;;10388986;28;20294;-75
2022/09/29 12:41:12;;;;;;;10.13;7.83;;;17.80;99.90;;;;;;10383244;28;20297;-75
2022/09/29 12:46:24;;;;;;;12.57;9.63;;;17.90;99.90;;;;;;10392152;28;20260;-75
2022/09/29 12:51:35;;;;;;;12.40;9.60;;;17.90;99.90;;;;;;10380907;28;20374;-74
2022/09/29 12:56:39;;;;;;;9.47;7.70;;;17.90;99.90;;;;;;10389776;28;20800;-73
2022/09/29 13:01:40;;;;;;;9.47;7.67;;;17.80;99.90;;;;;;10396535;28;20252;-75
2022/09/29 13:06:51;;;;;;;7.97;6.60;;;17.90;99.90;;;;;;10395557;28;20319;-75
2022/09/29 13:12:03;;;;;;;6.93;6.20;;;18.00;99.90;;;;;;10389357;28;20227;-74
2022/09/29 13:17:20;;;;;;;8.30;6.47;;;18.00;99.90;;;;;;10385760;28;20222;-75
2022/09/29 13:22:32;;;;;;;11.30;5.87;;;17.90;99.90;;;;;;10393217;28;20294;-75
2022/09/29 13:27:38;;;;;;;8.07;5.30;;;17.70;99.90;;;;;;10395260;28;20227;-74
2022/09/29 13:33:08;;;;;;;5.27;4.33;;;17.60;99.90;;;;;;10388510;28;20230;-74
2022/09/29 13:38:32;;;;;;;6.27;4.93;;;17.60;99.90;;;;;;10390474;28;20852;-75
2022/09/29 13:43:49;;;;;;;11.10;6.70;;;17.50;99.90;;;;;;10399152;28;20307;-75
2022/09/29 13:49:01;;;;;;;10.37;7.87;;;17.50;99.90;;;;;;10395946;28;20236;-74
2022/09/29 13:54:40;;;;;;;9.17;6.53;;;17.60;99.90;;;;;;10397827;28;20539;-75
2022/09/29 14:00:04;;;;;;;6.87;5.50;;;17.60;99.90;;;;;;10387716;28;20738;-74
2022/09/29 14:05:25;;;;;;;4.63;3.30;;;17.50;99.90;;;;;;10387440;28;20247;-74
2022/09/29 14:10:31;;;;;;;4.33;2.80;;;17.20;99.10;;;;;;10399064;28;20279;-74
2022/09/29 14:15:38;;;;;;;5.93;2.00;;;17.20;97.40;;;;;;10385503;28;20218;-75
2022/09/29 14:21:08;;;;;;;3.13;1.43;;;17.10;95.40;;;;;;10386978;28;20217;-75
2022/09/29 14:26:45;;;;;;;5.93;2.00;;;17.10;96.10;;;;;;10398346;28;20268;-72
2022/09/29 14:31:50;;;;;;;3.17;1.50;;;17.00;95.50;;;;;;10394051;28;20248;-75
2022/09/29 14:36:53;;;;;;;5.00;2.20;;;16.80;94.60;;;;;;10403411;28;20232;-75
2022/09/29 14:41:55;;;;;;;5.57;2.03;;;16.60;96.60;;;;;;10386614;28;20218;-74
2022/09/29 14:52:54;;;;;;;4.30;1.80;;;16.30;98.10;;;;;;10387781;28;20250;-74
2022/09/29 14:58:13;;;;;;;5.03;1.70;;;16.30;97.80;;;;;;10387232;28;20240;-74
2022/09/29 15:03:22;;;;;;;4.13;1.83;;;16.10;97.40;;;;;;10393412;28;20317;-74
2022/09/29 15:08:30;;;;;;;2.80;1.53;;;16.00;98.20;;;;;;10393864;28;20389;-74
2022/09/29 15:13:30;;;;;;;3.90;1.60;;;15.80;99.00;;;;;;10386129;28;20232;-74
2022/09/29 15:18:31;;;;;;;2.73;1.23;;;15.70;99.40;;;;;;10390316;28;20254;-75
2022/09/29 15:23:52;;;;;;;3.47;1.60;;;15.60;99.90;;;;;;10385378;28;20237;-74
2022/09/29 15:28:52;;;;;;;3.17;1.20;;;15.60;99.90;;;;;;10391649;28;20228;-74
2022/09/29 15:33:56;;;;;;;3.87;1.80;;;15.50;99.90;;;;;;10384296;28;20213;-74
2022/09/29 15:39:32;;;;;;;1.60;1.30;;;15.30;99.90;;;;;;10390011;28;20699;-75
2022/09/29 15:44:32;;;;;;;4.30;1.90;;;15.20;99.90;;;;;;10401968;28;20659;-73
2022/09/29 15:49:38;;;;;;;2.70;1.40;;;15.20;99.90;;;;;;10389757;28;20213;-74
2022/09/29 15:54:43;;;;;;;3.77;1.57;;;15.20;99.90;;;;;;10383895;28;20209;-75
2022/09/29 15:59:47;;;;;;;5.53;1.73;;;15.10;99.90;;;;;;10390328;28;20219;-75
2022/09/29 16:04:53;;;;;;;6.60;1.53;;;15.10;99.90;;;;;;10389825;28;20228;-74
2022/09/29 16:10:03;;;;;;;3.83;1.60;;;14.90;99.90;;;;;;10381567;28;20911;-73
2022/09/29 16:15:04;;;;;;;1.70;1.43;;;14.70;99.90;;;;;;10391617;28;20286;-73
2022/09/29 16:20:05;;;;;;;2.63;1.40;;;14.50;99.90;;;;;;10396120;28;20274;-73
2022/09/29 16:25:21;;;;;;;1.87;1.33;;;14.30;99.90;;;;;;10385957;28;20625;-74
2022/09/29 16:30:26;;;;;;;3.63;1.37;;;14.10;99.90;;;;;;10392902;28;20325;-75
2022/09/29 16:35:38;;;;;;;5.77;1.73;;;14.00;99.90;;;;;;10391721;28;20216;-74
2022/09/29 16:40:39;;;;;;;3.63;1.50;;;13.90;99.90;;;;;;10398142;28;20263;-74
2022/09/29 16:45:40;;;;;;;1.90;1.70;;;13.80;99.90;;;;;;10397582;28;20923;-74
2022/09/29 16:50:46;;;;;;;3.03;1.63;;;13.70;99.90;;;;;;10390020;28;20347;-75
2022/09/29 16:56:18;;;;;;;5.43;1.60;;;13.60;99.90;;;;;;10395664;28;20307;-74
2022/09/29 17:01:19;;;;;;;3.10;1.90;;;13.60;99.90;;;;;;10388005;28;20281;-74
2022/09/29 17:06:20;;;;;;;4.17;2.50;;;13.50;99.90;;;;;;10392545;28;20876;-74
2022/09/29 17:11:20;;;;;;;9.37;2.10;;;13.40;99.90;;;;;;10388552;28;20266;-74
2022/09/29 17:16:21;;;;;;;8.43;2.97;;;13.30;99.90;;;;;;10391210;28;20306;-74
2022/09/29 17:21:46;;;;;;;7.27;2.97;;;13.20;99.90;;;;;;10387360;28;20270;-73
2022/09/29 17:32:13;;;;;;;8.70;4.63;;;13.00;99.90;;;;;;10389918;28;20217;-75
2022/09/29 17:37:17;;;;;;;6.27;3.70;;;13.00;99.90;;;;;;10396047;28;20299;-75
2022/09/29 17:42:18;;;;;;;6.80;4.17;;;12.90;99.90;;;;;;10396407;28;20220;-75
2022/09/29 17:47:18;;;;;;;8.03;4.57;;;12.80;99.90;;;;;;10393532;28;20215;-74
2022/09/29 17:52:19;;;;;;;6.67;3.77;;;12.60;99.90;;;;;;10407497;28;20599;-74
2022/09/29 17:57:26;;;;;;;7.30;2.63;;;12.40;99.90;;;;;;10391554;28;20232;-74
2022/09/29 18:02:27;;;;;;;5.17;2.30;;;12.10;99.90;;;;;;10389751;28;20252;-75
2022/09/29 18:07:28;;;;;;;5.37;2.50;;;11.80;99.90;;;;;;10402269;28;20242;-75
2022/09/29 18:12:28;;;;;;;4.87;3.30;;;11.60;99.90;;;;;;10399953;28;20287;-74
2022/09/29 18:17:29;;;;;;;5.70;3.13;;;11.40;99.90;;;;;;10392656;28;20310;-75
2022/09/29 18:22:29;;;;;;;4.40;2.70;;;11.20;99.90;;;;;;10388733;28;20671;-74
2022/09/29 18:27:30;;;;;;;5.90;3.10;;;11.00;99.90;;;;;;10391812;28;20216;-75
2022/09/29 18:32:30;;;;;;;5.17;2.97;;;10.90;99.90;;;;;;10396923;28;20279;-70
2022/09/29 18:37:31;;;;;;;2.93;2.63;;;10.80;99.90;;;;;;10395108;28;20723;-72
2022/09/29 18:42:32;;;;;;;6.97;3.63;;;10.80;99.90;;;;;;10400611;28;20216;-71
2022/09/29 18:47:32;;;;;;;7.37;4.70;;;10.70;99.90;;;;;;10386828;28;20209;-73
2022/09/29 18:52:33;;;;;;;5.97;3.83;;;10.80;99.90;;;;;;10390960;28;20239;-73
2022/09/29 18:57:34;;;;;;;6.07;4.20;;;10.70;99.90;;;;;;10391114;28;20225;-69
2022/09/29 19:02:35;;;;;;;7.73;3.97;;;10.80;99.90;;;;;;10396309;28;20803;-72
2022/09/29 19:07:36;;;;;;;8.73;5.40;;;10.70;99.90;;;;;;10392300;28;20220;-72
2022/09/29 19:12:37;;;;;;;6.73;4.30;;;10.60;99.90;;;;;;10383887;28;20233;-71
2022/09/29 19:17:39;;;;;;;6.80;4.23;;;10.50;99.90;;;;;;10391641;28;20225;-71
2022/09/29 19:22:42;;;;;;;8.43;4.03;;;10.40;99.90;;;;;;10385171;28;20228;-71
2022/09/29 19:27:44;;;;;;;4.63;3.40;;;10.30;99.90;;;;;;10393139;28;20220;-72
2022/09/29 19:32:46;;;;;;;6.20;3.47;;;10.20;99.90;;;;;;10385191;28;20753;-73
2022/09/29 19:37:47;;;;;;;6.90;4.47;;;10.20;99.90;;;;;;10392922;28;20323;-73
2022/09/29 19:42:48;;;;;;;5.77;3.83;;;10.20;99.90;;;;;;10385759;28;20255;-73
2022/09/29 19:47:53;;;;;;;6.30;3.93;;;10.20;99.90;;;;;;10377500;28;20223;-73
2022/09/29 19:52:55;;;;;;;7.07;3.87;;;10.10;99.90;;;;;;10429484;28;20690;-73
2022/09/29 19:57:55;;;;;;;10.27;3.90;;;10.00;99.90;;;;;;10426487;28;20220;-73
2022/09/29 20:02:57;;;;;;;4.73;3.60;;;9.90;99.90;;;;;;10428906;28;20223;-74
2022/09/29 20:08:00;;;;;;;6.40;3.93;;;9.80;99.90;;;;;;10430078;28;20597;-73
2022/09/29 20:13:02;;;;;;;6.63;4.40;;;9.70;99.90;;;;;;10397775;28;20326;-72
2022/09/29 20:18:02;;;;;;;6.00;4.40;;;9.60;99.90;;;;;;10389600;28;20223;-75
2022/09/29 20:23:04;;;;;;;5.10;4.27;;;9.50;99.90;;;;;;10406388;28;20210;-74
2022/09/29 20:28:05;;;;;;;6.77;5.30;;;9.50;99.90;;;;;;10435028;28;20219;-75
2022/09/29 20:33:06;;;;;;;8.73;5.47;;;9.40;99.90;;;;;;10429449;28;20227;-75
2022/09/29 20:38:07;;;;;;;10.10;6.07;;;9.30;99.90;;;;;;10431122;28;20211;-76
2022/09/29 20:43:10;;;;;;;7.63;5.63;;;9.30;99.90;;;;;;10427869;28;20226;-74
2022/09/29 20:48:11;;;;;;;10.13;6.03;;;9.20;99.90;;;;;;10390063;28;20278;-73
2022/09/29 20:53:15;;;;;;;12.27;6.60;;;9.10;99.90;;;;;;10395015;28;20765;-73
2022/09/29 20:58:15;;;;;;;9.43;5.70;;;9.10;99.90;;;;;;10384665;28;20607;-73
2022/09/29 21:03:19;;;;;;;11.83;7.30;;;9.00;99.90;;;;;;10386566;28;20234;-74
2022/09/29 21:08:19;;;;;;;9.27;7.20;;;9.00;99.90;;;;;;10391202;28;20220;-74
2022/09/29 21:13:23;;;;;;;10.83;7.00;;;9.00;99.90;;;;;;10387373;28;20601;-74
2022/09/29 21:18:28;;;;;;;10.23;7.13;;;9.00;99.90;;;;;;10382439;28;20222;-74
2022/09/29 21:23:31;;;;;;;12.90;7.60;;;9.00;99.90;;;;;;10399549;28;20226;-73
2022/09/29 21:28:36;;;;;;;10.37;6.80;;;9.10;99.90;;;;;;10391140;28;20224;-73
2022/09/29 21:33:40;;;;;;;8.17;6.70;;;9.10;99.90;;;;;;10396749;28;20269;-73
2022/09/29 21:38:42;;;;;;;9.00;6.63;;;9.20;99.90;;;;;;10390624;28;20224;-74
2022/09/29 21:43:44;;;;;;;9.93;7.57;;;9.20;99.90;;;;;;10387836;28;20306;-73
2022/09/29 21:48:48;;;;;;;9.43;6.40;;;9.30;99.90;;;;;;10400896;28;20724;-73
2022/09/29 21:53:53;;;;;;;7.73;6.03;;;9.30;99.90;;;;;;10397618;28;20220;-74
2022/09/29 21:58:55;;;;;;;9.80;5.97;;;9.20;99.90;;;;;;10389602;28;20663;-73
2022/09/29 22:03:56;;;;;;;8.80;6.20;;;9.10;99.90;;;;;;10395254;28;20234;-74
2022/09/29 22:08:58;;;;;;;9.53;5.37;;;9.10;99.90;;;;;;10388321;28;20232;-74
2022/09/29 22:14:00;;;;;;;11.43;6.17;;;9.00;99.90;;;;;;10396646;28;20215;-73
2022/09/29 22:19:05;;;;;;;7.10;5.63;;;9.00;99.90;;;;;;10395215;28;20745;-76
2022/09/29 22:24:05;;;;;;;6.63;5.00;;;8.90;99.90;;;;;;10387653;28;20233;-74
2022/09/29 22:29:06;;;;;;;9.03;6.70;;;8.80;99.90;;;;;;10394671;28;20223;-74
2022/09/29 22:34:09;;;;;;;10.27;6.20;;;8.70;99.90;;;;;;10392785;28;20222;-73
2022/09/29 22:39:10;;;;;;;9.93;6.30;;;8.60;99.90;;;;;;10388914;28;20220;-72
2022/09/29 22:44:11;;;;;;;8.00;6.43;;;8.50;99.90;;;;;;10395221;28;20361;-74
2022/09/29 22:49:12;;;;;;;10.60;7.17;;;8.50;99.90;;;;;;10398983;28;20377;-74
2022/09/29 22:54:13;;;;;;;9.43;6.40;;;8.50;99.90;;;;;;10399888;28;20220;-74
2022/09/29 22:59:14;;;;;;;9.50;6.23;;;8.40;99.90;;;;;;10397263;28;20227;-75
2022/09/29 23:04:15;;;;;;;8.03;5.80;;;8.30;99.90;;;;;;10391284;28;20266;-73
2022/09/29 23:09:16;;;;;;;7.87;5.60;;;8.30;99.90;;;;;;10388542;28;20309;-73
2022/09/29 23:14:17;;;;;;;8.43;6.40;;;8.20;99.90;;;;;;10388662;28;20242;-76
2022/09/29 23:19:18;;;;;;;7.37;5.70;;;8.20;99.90;;;;;;10389139;28;20227;-74
2022/09/29 23:24:19;;;;;;;8.60;6.63;;;8.20;99.90;;;;;;10389066;28;20249;-75
2022/09/29 23:29:19;;;;;;;8.90;6.73;;;8.10;99.90;;;;;;10388267;28;20229;-74
2022/09/29 23:34:22;;;;;;;9.03;7.00;;;8.10;99.90;;;;;;10388010;28;20219;-74
2022/09/29 23:39:26;;;;;;;6.80;5.67;;;8.00;99.90;;;;;;10388489;28;20257;-75
2022/09/29 23:44:28;;;;;;;9.80;6.63;;;8.00;99.90;;;;;;10385765;28;20629;-73
2022/09/29 23:49:29;;;;;;;9.67;6.30;;;8.00;99.90;;;;;;10388221;28;20321;-76
2022/09/29 23:54:29;;;;;;;8.57;6.30;;;8.00;99.90;;;;;;10384247;28;20292;-76
2022/09/29 23:59:30;;;;;;;8.20;6.40;;;8.10;99.90;;;;;;10396252;28;20288;-75
